createdAt,value
2023-01-06T00:01:41.477Z,8.90
2023-01-06T00:04:09.615Z,8.80
2023-01-06T00:06:37.801Z,8.80
2023-01-06T00:09:07.375Z,8.80
2023-01-06T00:11:35.441Z,8.80
2023-01-06T00:14:05.197Z,8.70
2023-01-06T00:16:33.755Z,8.80
2023-01-06T00:19:02.049Z,8.80
2023-01-06T00:21:30.754Z,8.80
2023-01-06T00:23:58.774Z,8.80
2023-01-06T00:26:27.375Z,8.80
2023-01-06T00:28:56.510Z,8.20
2023-01-06T00:31:25.969Z,12.00
2023-01-06T00:33:54.130Z,8.80
2023-01-06T00:36:22.609Z,8.80
2023-01-06T00:38:53.108Z,8.80
2023-01-06T00:41:39.172Z,8.80
2023-01-06T00:44:07.708Z,8.70
2023-01-06T00:46:39.165Z,8.80
2023-01-06T00:49:08.029Z,11.60
2023-01-06T00:51:39.091Z,10.70
2023-01-06T00:54:08.363Z,10.90
2023-01-06T00:56:38.482Z,10.10
2023-01-06T00:59:06.949Z,10.10
2023-01-06T01:01:37.268Z,8.70
2023-01-06T01:04:05.492Z,8.60
2023-01-06T01:06:33.974Z,8.40
2023-01-06T01:09:02.536Z,8.40
2023-01-06T01:11:48.754Z,8.50
2023-01-06T01:14:18.258Z,8.70
2023-01-06T01:16:47.752Z,8.40
2023-01-06T01:19:16.799Z,9.70
2023-01-06T01:21:44.832Z,8.30
2023-01-06T01:24:13.122Z,8.30
2023-01-06T01:26:41.102Z,8.20
2023-01-06T01:29:12.193Z,9.30
2023-01-06T01:31:40.245Z,10.50
2023-01-06T01:34:10.766Z,8.20
2023-01-06T01:36:40.539Z,8.20
2023-01-06T01:39:09.150Z,8.30
2023-01-06T01:41:37.882Z,8.90
2023-01-06T01:44:44.761Z,8.30
2023-01-06T01:47:17.303Z,8.40
2023-01-06T01:49:48.495Z,7.90
2023-01-06T01:52:17.821Z,10.30
2023-01-06T01:54:47.187Z,8.80
2023-01-06T01:57:20.344Z,8.00
2023-01-06T01:59:48.785Z,8.00
2023-01-06T02:02:18.930Z,8.00
2023-01-06T02:04:52.674Z,7.90
2023-01-06T02:07:21.605Z,7.90
2023-01-06T02:09:57.985Z,7.90
2023-01-06T02:12:26.248Z,7.90
2023-01-06T02:14:54.411Z,7.80
2023-01-06T02:17:41.105Z,7.70
2023-01-06T02:20:35.299Z,7.70
2023-01-06T02:23:36.984Z,7.70
2023-01-06T02:26:25.407Z,7.40
2023-01-06T02:29:33.779Z,7.50
2023-01-06T02:32:15.718Z,7.40
2023-01-06T02:34:52.450Z,7.40
2023-01-06T02:37:31.946Z,5.70
2023-01-06T02:40:12.891Z,10.60
2023-01-06T02:42:46.714Z,9.40
2023-01-06T02:45:22.301Z,10.10
2023-01-06T02:48:00.513Z,4.60
2023-01-06T02:50:39.257Z,7.10
2023-01-06T02:53:12.431Z,7.10
2023-01-06T02:55:45.390Z,7.00
2023-01-06T02:58:19.843Z,7.10
2023-01-06T03:00:53.207Z,7.10
2023-01-06T03:03:25.780Z,7.00
2023-01-06T03:05:58.873Z,7.00
2023-01-06T03:08:30.029Z,7.20
2023-01-06T03:10:59.893Z,6.90
2023-01-06T03:13:33.372Z,6.90
2023-01-06T03:16:01.685Z,6.90
2023-01-06T03:18:31.713Z,10.00
2023-01-06T03:21:03.901Z,6.80
2023-01-06T03:23:32.000Z,6.80
2023-01-06T03:26:00.132Z,6.70
2023-01-06T03:28:28.136Z,7.80
2023-01-06T03:31:07.765Z,7.00
2023-01-06T03:33:43.304Z,6.80
2023-01-06T03:36:20.795Z,7.50
2023-01-06T03:38:57.285Z,6.70
2023-01-06T03:41:52.803Z,6.70
2023-01-06T03:44:29.883Z,6.90
2023-01-06T03:47:04.939Z,6.50
2023-01-06T03:49:40.245Z,6.60
2023-01-06T03:52:15.137Z,6.50
2023-01-06T03:54:50.064Z,9.70
2023-01-06T03:57:21.918Z,6.50
2023-01-06T03:59:54.925Z,6.50
2023-01-06T04:02:24.022Z,4.50
2023-01-06T04:05:12.987Z,6.50
2023-01-06T04:07:42.395Z,5.00
2023-01-06T04:10:12.193Z,6.40
2023-01-06T04:12:39.434Z,6.30
2023-01-06T04:15:09.256Z,6.30
2023-01-06T04:17:37.846Z,6.40
2023-01-06T04:20:06.893Z,6.30
2023-01-06T04:22:36.344Z,6.20
2023-01-06T04:25:04.954Z,6.30
2023-01-06T04:27:32.897Z,6.20
2023-01-06T04:30:00.874Z,6.20
2023-01-06T04:32:29.012Z,6.70
2023-01-06T04:34:56.997Z,6.20
2023-01-06T04:37:25.118Z,6.10
2023-01-06T04:39:54.484Z,8.70
2023-01-06T04:42:22.545Z,6.10
2023-01-06T04:44:50.638Z,6.10
2023-01-06T04:47:18.644Z,9.00
2023-01-06T04:49:46.698Z,6.10
2023-01-06T04:52:14.679Z,6.10
2023-01-06T04:54:42.594Z,6.00
2023-01-06T04:57:11.905Z,6.00
2023-01-06T04:59:39.819Z,5.90
2023-01-06T05:02:07.888Z,5.90
2023-01-06T05:04:47.151Z,5.90
2023-01-06T05:07:15.890Z,5.90
2023-01-06T05:09:43.852Z,5.90
2023-01-06T05:12:13.315Z,6.20
2023-01-06T05:14:41.458Z,5.80
2023-01-06T05:17:09.585Z,5.80
2023-01-06T05:19:37.540Z,5.70
2023-01-06T05:22:05.673Z,5.80
2023-01-06T05:24:33.745Z,5.80
2023-01-06T05:27:01.643Z,4.20
2023-01-06T05:29:31.010Z,5.80
2023-01-06T05:31:59.756Z,5.70
2023-01-06T05:34:28.069Z,5.60
2023-01-06T05:36:57.011Z,5.70
2023-01-06T05:39:25.176Z,5.70
2023-01-06T05:41:53.245Z,7.90
2023-01-06T05:44:21.200Z,8.30
2023-01-06T05:46:50.560Z,3.80
2023-01-06T05:49:18.547Z,5.60
2023-01-06T05:51:46.462Z,5.60
2023-01-06T05:54:15.478Z,3.60
2023-01-06T05:56:43.467Z,7.30
2023-01-06T05:59:11.412Z,5.60
2023-01-06T06:01:39.512Z,5.80
2023-01-06T06:04:09.046Z,7.00
2023-01-06T06:06:36.986Z,5.60
2023-01-06T06:09:06.148Z,5.60
2023-01-06T06:11:34.043Z,5.70
2023-01-06T06:14:02.023Z,7.70
2023-01-06T06:16:30.158Z,5.50
2023-01-06T06:18:59.936Z,5.50
2023-01-06T06:21:31.285Z,5.10
2023-01-06T06:24:00.754Z,6.70
2023-01-06T06:26:29.349Z,5.50
2023-01-06T06:28:57.387Z,5.50
2023-01-06T06:31:28.529Z,5.50
2023-01-06T06:33:58.495Z,5.50
2023-01-06T06:36:26.844Z,5.50
2023-01-06T06:38:56.636Z,5.50
2023-01-06T06:41:25.944Z,5.50
2023-01-06T06:43:54.376Z,5.90
2023-01-06T06:46:23.052Z,5.40
2023-01-06T06:48:51.850Z,5.40
2023-01-06T06:51:21.887Z,5.50
2023-01-06T06:53:51.165Z,5.50
2023-01-06T06:56:22.173Z,5.50
2023-01-06T06:58:50.262Z,5.60
2023-01-06T07:01:20.769Z,5.60
2023-01-06T07:03:49.765Z,5.60
2023-01-06T07:06:21.058Z,5.60
2023-01-06T07:08:49.947Z,5.50
2023-01-06T07:11:18.671Z,5.50
2023-01-06T07:13:48.240Z,4.80
2023-01-06T07:16:16.672Z,7.20
2023-01-06T07:18:44.814Z,6.70
2023-01-06T07:21:12.766Z,5.30
2023-01-06T07:23:40.735Z,7.10
2023-01-06T07:26:09.317Z,5.60
2023-01-06T07:28:37.338Z,5.70
2023-01-06T07:31:06.819Z,5.80
2023-01-06T07:33:38.096Z,5.80
2023-01-06T07:36:06.684Z,5.80
2023-01-06T07:38:34.720Z,8.10
2023-01-06T07:41:02.748Z,5.90
2023-01-06T07:43:30.785Z,6.00
2023-01-06T07:45:59.000Z,6.00
2023-01-06T07:48:28.497Z,6.00
2023-01-06T07:50:58.420Z,5.90
2023-01-06T07:53:26.802Z,6.00
2023-01-06T07:55:55.430Z,6.10
2023-01-06T07:58:24.843Z,6.10
2023-01-06T08:00:53.499Z,8.50
2023-01-06T08:03:21.781Z,9.70
2023-01-06T08:05:51.238Z,6.10
2023-01-06T08:08:19.205Z,5.80
2023-01-06T08:10:47.207Z,6.30
2023-01-06T08:13:15.251Z,7.20
2023-01-06T08:15:43.303Z,6.70
2023-01-06T08:18:11.730Z,6.40
2023-01-06T08:23:09.516Z,6.50
2023-01-06T08:25:37.500Z,8.80
2023-01-06T08:28:05.759Z,6.50
2023-01-06T08:30:39.791Z,6.40
2023-01-06T08:33:07.907Z,6.60
2023-01-06T08:43:02.674Z,6.80
2023-01-06T08:45:30.677Z,6.80
2023-01-06T08:47:58.772Z,6.80
2023-01-06T08:50:27.494Z,8.90
2023-01-06T08:52:55.597Z,5.00
2023-01-06T08:55:23.624Z,7.10
2023-01-06T08:57:54.964Z,7.00
2023-01-06T09:00:23.750Z,7.00
2023-01-06T09:02:52.321Z,7.10
2023-01-06T09:05:20.511Z,7.10
2023-01-06T09:07:50.638Z,7.20
2023-01-06T09:10:19.195Z,7.40
2023-01-06T09:12:47.648Z,7.30
2023-01-06T09:15:17.145Z,7.30
2023-01-06T09:17:45.073Z,7.40
2023-01-06T09:20:13.081Z,7.90
2023-01-06T09:22:41.181Z,7.50
2023-01-06T09:25:10.067Z,7.80
2023-01-06T09:27:38.270Z,6.70
2023-01-06T09:30:08.118Z,7.60
2023-01-06T09:32:37.523Z,7.70
2023-01-06T09:35:06.218Z,7.70
2023-01-06T09:37:34.381Z,8.40
2023-01-06T09:40:02.404Z,8.00
2023-01-06T09:42:45.922Z,8.20
2023-01-06T09:45:19.578Z,8.50
2023-01-06T09:47:53.152Z,8.20
2023-01-06T09:50:32.404Z,8.40
2023-01-06T09:53:04.405Z,8.50
2023-01-06T09:55:36.301Z,8.50
2023-01-06T09:58:11.507Z,10.80
2023-01-06T10:00:42.630Z,8.70
2023-01-06T10:03:15.124Z,8.80
2023-01-06T10:05:51.376Z,8.60
2023-01-06T10:08:29.101Z,8.90
2023-01-06T10:11:15.931Z,9.00
2023-01-06T10:16:27.462Z,9.20
2023-01-06T10:19:04.295Z,9.30
2023-01-06T10:21:37.454Z,9.40
2023-01-06T10:24:24.660Z,9.40
2023-01-06T10:26:58.411Z,10.70
2023-01-06T10:29:31.826Z,9.50
2023-01-06T10:32:01.865Z,9.50
2023-01-06T10:34:34.008Z,9.50
2023-01-06T10:37:06.733Z,8.70
2023-01-06T10:39:36.233Z,9.70
2023-01-06T10:42:30.447Z,10.80
2023-01-06T10:44:58.459Z,9.70
2023-01-06T10:47:30.763Z,9.70
2023-01-06T10:50:01.376Z,9.80
2023-01-06T10:52:29.590Z,9.80
2023-01-06T10:55:04.084Z,9.90
2023-01-06T10:57:36.667Z,9.70
2023-01-06T11:00:22.324Z,9.80
2023-01-06T11:02:51.925Z,9.80
2023-01-06T11:05:25.649Z,9.70
2023-01-06T11:07:57.772Z,9.80
2023-01-06T11:10:30.013Z,9.30
2023-01-06T11:13:03.921Z,9.80
2023-01-06T11:15:39.242Z,9.80
2023-01-06T11:18:20.124Z,9.90
2023-01-06T11:21:03.109Z,10.00
2023-01-06T11:23:31.205Z,8.50
2023-01-06T11:26:04.962Z,10.10
2023-01-06T11:28:34.084Z,10.10
2023-01-06T11:31:04.693Z,10.10
2023-01-06T11:33:34.599Z,10.10
2023-01-06T11:36:10.842Z,10.10
2023-01-06T11:38:44.894Z,10.20
2023-01-06T11:41:14.967Z,10.20
2023-01-06T11:43:47.256Z,10.20
2023-01-06T11:46:18.322Z,10.20
2023-01-06T11:48:51.557Z,10.30
2023-01-06T11:51:33.454Z,10.20
2023-01-06T11:54:02.419Z,10.20
2023-01-06T11:56:30.715Z,10.20
2023-01-06T11:59:05.373Z,10.20
2023-01-06T12:01:41.194Z,9.90
2023-01-06T12:04:16.710Z,10.20
2023-01-06T12:06:48.460Z,10.20
2023-01-06T12:09:21.086Z,10.20
2023-01-06T12:11:51.770Z,10.20
2023-01-06T12:14:28.382Z,10.00
2023-01-06T12:17:04.957Z,10.10
2023-01-06T12:19:41.362Z,10.20
2023-01-06T12:22:22.758Z,10.30
2023-01-06T12:24:52.908Z,10.00
2023-01-06T12:27:31.222Z,10.40
2023-01-06T12:30:03.221Z,10.50
2023-01-06T12:32:39.580Z,10.50
2023-01-06T12:35:12.930Z,13.80
2023-01-06T12:37:47.139Z,12.30
2023-01-06T12:40:23.516Z,10.80
2023-01-06T12:42:56.779Z,10.80
2023-01-06T12:45:35.199Z,10.80
2023-01-06T12:48:11.649Z,10.90
2023-01-06T12:50:44.607Z,11.00
2023-01-06T12:53:20.820Z,10.90
2023-01-06T12:55:59.176Z,10.90
2023-01-06T12:58:36.127Z,10.90
2023-01-06T13:01:10.088Z,10.90
2023-01-06T13:04:06.695Z,10.90
2023-01-06T13:06:47.540Z,10.80
2023-01-06T13:09:28.885Z,12.10
2023-01-06T13:12:35.448Z,10.70
2023-01-06T13:15:15.819Z,10.50
2023-01-06T13:17:49.710Z,10.50
2023-01-06T13:20:23.116Z,10.30
2023-01-06T13:23:08.294Z,10.80
2023-01-06T13:25:57.770Z,10.20
2023-01-06T13:28:35.750Z,10.10
2023-01-06T13:31:42.496Z,10.60
2023-01-06T13:34:35.066Z,10.60
2023-01-06T13:37:30.587Z,10.20
2023-01-06T13:40:01.423Z,10.80
2023-01-06T13:42:36.879Z,10.60
2023-01-06T13:45:09.316Z,10.20
2023-01-06T13:47:39.788Z,10.10
2023-01-06T13:50:09.875Z,10.10
2023-01-06T13:52:38.512Z,10.20
2023-01-06T13:55:23.459Z,9.50
2023-01-06T13:57:53.161Z,10.40
2023-01-06T14:03:02.376Z,10.10
2023-01-06T14:06:05.710Z,9.20
2023-01-06T14:08:39.620Z,10.20
2023-01-06T14:11:24.888Z,9.80
2023-01-06T14:13:57.583Z,12.40
2023-01-06T14:16:45.984Z,10.20
2023-01-06T14:19:18.860Z,9.40
2023-01-06T14:21:48.337Z,9.90
2023-01-06T14:24:24.375Z,9.70
2023-01-06T14:26:58.487Z,9.70
2023-01-06T14:30:01.844Z,9.60
2023-01-06T14:33:03.840Z,10.80
2023-01-06T14:35:44.842Z,9.60
2023-01-06T14:38:25.404Z,9.60
2023-01-06T14:40:58.982Z,9.50
2023-01-06T14:43:34.600Z,9.50
2023-01-06T14:46:11.097Z,10.20
2023-01-06T14:48:46.652Z,9.40
2023-01-06T14:51:21.123Z,11.40
2023-01-06T14:57:00.277Z,10.70
2023-01-06T14:59:29.241Z,9.40
2023-01-06T15:02:02.783Z,9.30
2023-01-06T15:04:32.808Z,9.40
2023-01-06T15:07:05.726Z,9.30
2023-01-06T15:09:34.712Z,9.30
2023-01-06T15:12:02.874Z,9.30
2023-01-06T15:14:32.823Z,9.30
2023-01-06T15:17:05.312Z,9.00
2023-01-06T15:19:33.974Z,9.30
2023-01-06T15:22:03.345Z,9.30
2023-01-06T15:24:32.731Z,9.50
2023-01-06T15:27:06.898Z,9.30
2023-01-06T15:29:35.880Z,9.30
2023-01-06T15:32:08.051Z,8.50
2023-01-06T15:34:40.732Z,9.20
2023-01-06T15:37:15.490Z,9.20
2023-01-06T15:39:44.147Z,9.20
2023-01-06T15:42:14.384Z,9.10
2023-01-06T15:44:43.202Z,9.10
2023-01-06T15:47:29.737Z,9.20
2023-01-06T15:50:04.353Z,9.00
2023-01-06T15:52:35.693Z,9.10
2023-01-06T15:55:07.920Z,9.10
2023-01-06T15:57:39.557Z,9.10
2023-01-06T16:00:10.350Z,10.50
2023-01-06T16:02:40.002Z,9.10
2023-01-06T16:05:23.234Z,9.10
2023-01-06T16:07:51.219Z,9.10
2023-01-06T16:10:34.675Z,9.00
2023-01-06T16:13:25.678Z,9.00
2023-01-06T16:16:01.826Z,9.10
2023-01-06T16:18:33.858Z,9.10
2023-01-06T16:21:14.854Z,9.20
2023-01-06T16:23:42.974Z,10.80
2023-01-06T16:26:15.489Z,9.00
2023-01-06T16:28:48.033Z,9.00
2023-01-06T16:31:29.510Z,8.90
2023-01-06T16:34:16.529Z,8.90
2023-01-06T16:36:44.644Z,8.30
2023-01-06T16:39:12.602Z,9.30
2023-01-06T16:41:42.560Z,9.70
2023-01-06T16:44:11.326Z,8.90
2023-01-06T16:46:39.465Z,8.30
2023-01-06T16:49:11.527Z,8.90
2023-01-06T16:51:40.296Z,8.90
2023-01-06T16:54:13.132Z,11.20
2023-01-06T16:56:41.600Z,8.90
2023-01-06T16:59:12.831Z,8.90
2023-01-06T17:01:41.340Z,8.90
2023-01-06T17:04:12.948Z,8.90
2023-01-06T17:06:42.909Z,8.90
2023-01-06T17:09:18.556Z,8.90
2023-01-06T17:11:47.610Z,8.80
2023-01-06T17:14:17.927Z,10.80
2023-01-06T17:16:47.589Z,8.80
2023-01-06T17:19:20.584Z,8.80
2023-01-06T17:21:49.834Z,8.80
2023-01-06T17:24:21.039Z,8.80
2023-01-06T17:26:51.273Z,8.80
2023-01-06T17:29:21.815Z,8.80
2023-01-06T17:31:51.603Z,8.80
2023-01-06T17:34:27.075Z,8.80
2023-01-06T17:36:57.449Z,8.80
2023-01-06T17:39:29.224Z,8.50
2023-01-06T17:42:02.024Z,8.80
2023-01-06T17:44:53.908Z,8.80
2023-01-06T17:47:29.149Z,8.80
2023-01-06T17:50:00.360Z,8.80
2023-01-06T17:52:33.375Z,8.70
2023-01-06T17:55:30.333Z,8.70
2023-01-06T17:57:59.824Z,8.70
2023-01-06T18:00:32.293Z,8.80
2023-01-06T18:03:03.418Z,8.80
2023-01-06T18:06:05.138Z,8.60
2023-01-06T18:08:35.225Z,6.90
2023-01-06T18:11:26.563Z,8.70
2023-01-06T18:13:55.428Z,8.70
2023-01-06T18:16:30.793Z,8.70
2023-01-06T18:19:06.743Z,8.70
2023-01-06T18:21:39.385Z,8.70
2023-01-06T18:24:17.191Z,8.70
2023-01-06T18:26:52.258Z,8.70
2023-01-06T18:29:24.400Z,8.70
2023-01-06T18:31:54.655Z,8.20
2023-01-06T18:34:36.413Z,8.70
2023-01-06T18:37:05.968Z,8.70
2023-01-06T18:39:40.655Z,8.70
2023-01-06T18:42:28.576Z,8.70
2023-01-06T18:45:04.688Z,8.60
2023-01-06T18:47:35.641Z,8.70
2023-01-06T18:50:24.347Z,8.60
2023-01-06T18:52:56.163Z,8.50
2023-01-06T18:55:28.046Z,8.70
2023-01-06T18:57:59.534Z,8.60
2023-01-06T19:00:39.870Z,8.70
2023-01-06T19:03:38.924Z,8.70
2023-01-06T19:06:42.957Z,8.90
2023-01-06T19:09:28.752Z,9.60
2023-01-06T19:12:15.177Z,8.40
2023-01-06T19:14:47.006Z,8.60
2023-01-06T19:17:22.555Z,8.60
2023-01-06T19:19:53.461Z,8.50
2023-01-06T19:22:25.698Z,8.60
2023-01-06T19:25:00.509Z,8.50
2023-01-06T19:27:50.274Z,8.50
2023-01-06T19:30:45.482Z,6.30
2023-01-06T19:33:40.902Z,8.50
2023-01-06T19:36:40.822Z,8.50
2023-01-06T19:39:31.679Z,8.50
2023-01-06T19:42:14.614Z,8.40
2023-01-06T19:44:49.983Z,8.40
2023-01-06T19:47:21.865Z,8.40
2023-01-06T19:49:55.280Z,8.40
2023-01-06T19:52:52.010Z,8.40
2023-01-06T19:58:42.387Z,7.90
2023-01-06T20:01:18.771Z,8.30
2023-01-06T20:03:58.199Z,8.30
2023-01-06T20:06:38.099Z,8.40
2023-01-06T20:09:37.446Z,8.40
2023-01-06T20:17:38.733Z,8.40
2023-01-06T20:20:08.711Z,8.40
2023-01-06T20:22:37.090Z,9.00
2023-01-06T20:25:06.687Z,8.30
2023-01-06T20:27:35.462Z,8.30
2023-01-06T20:30:05.901Z,12.70
2023-01-06T20:32:34.408Z,8.70
2023-01-06T20:35:04.284Z,8.20
2023-01-06T20:37:33.151Z,8.30
2023-01-06T20:40:01.923Z,8.20
2023-01-06T20:42:31.350Z,8.20
2023-01-06T20:44:59.789Z,8.20
2023-01-06T20:47:31.778Z,8.00
2023-01-06T20:50:00.885Z,8.20
2023-01-06T20:52:29.775Z,7.60
2023-01-06T20:54:58.076Z,8.60
2023-01-06T20:57:26.868Z,8.10
2023-01-06T20:59:55.214Z,8.20
2023-01-06T21:02:23.591Z,8.20
2023-01-06T21:04:54.065Z,8.20
2023-01-06T21:07:22.596Z,7.60
2023-01-06T21:09:50.725Z,8.20
2023-01-06T21:12:19.682Z,8.30
2023-01-06T21:14:49.790Z,8.20
2023-01-06T21:17:17.794Z,8.20
2023-01-06T21:19:46.088Z,8.20
2023-01-06T21:22:15.614Z,8.20
2023-01-06T21:24:45.094Z,7.90
2023-01-06T21:27:13.230Z,8.20
2023-01-06T21:29:41.489Z,8.20
2023-01-06T21:32:10.845Z,8.20
2023-01-06T21:34:42.569Z,7.90
2023-01-06T21:37:11.879Z,9.10
2023-01-06T21:39:49.151Z,8.20
2023-01-06T21:42:34.348Z,8.20
2023-01-06T21:45:02.404Z,8.10
2023-01-06T21:47:35.882Z,8.10
2023-01-06T21:50:06.184Z,8.20
2023-01-06T21:52:34.426Z,8.10
2023-01-06T21:55:05.983Z,8.10
2023-01-06T21:57:34.221Z,8.10
2023-01-06T22:00:02.296Z,8.00
2023-01-06T22:02:31.580Z,6.60
2023-01-06T22:05:00.267Z,8.20
2023-01-06T22:07:29.044Z,8.10
2023-01-06T22:09:58.361Z,11.60
2023-01-06T22:12:28.676Z,8.00
2023-01-06T22:14:57.244Z,8.60
2023-01-06T22:17:27.161Z,8.10
2023-01-06T22:20:10.776Z,8.10
2023-01-06T22:22:40.394Z,8.10
2023-01-06T22:25:12.155Z,8.10
2023-01-06T22:27:42.063Z,8.10
2023-01-06T22:30:11.394Z,8.10
2023-01-06T22:32:46.781Z,8.10
2023-01-06T22:35:20.531Z,8.10
2023-01-06T22:37:48.766Z,8.60
2023-01-06T22:40:16.943Z,8.00
2023-01-06T22:42:46.585Z,8.10
2023-01-06T22:45:15.522Z,8.10
2023-01-06T22:47:44.408Z,8.10
2023-01-06T22:50:15.479Z,8.00
2023-01-06T22:52:44.856Z,8.00
2023-01-06T22:55:13.241Z,8.00
2023-01-06T22:57:42.169Z,8.90
2023-01-06T23:00:16.290Z,8.00
2023-01-06T23:02:46.965Z,8.00
2023-01-06T23:05:17.063Z,8.00
2023-01-06T23:07:58.392Z,8.00
2023-01-06T23:10:26.755Z,8.00
2023-01-06T23:12:55.827Z,8.00
2023-01-06T23:15:27.452Z,8.00
2023-01-06T23:17:55.788Z,8.00
2023-01-06T23:20:24.797Z,8.00
2023-01-06T23:22:52.993Z,8.00
2023-01-06T23:25:21.771Z,8.30
2023-01-06T23:27:49.817Z,7.90
2023-01-06T23:30:18.077Z,7.50
2023-01-06T23:32:47.543Z,8.50
2023-01-06T23:35:16.492Z,7.90
2023-01-06T23:37:45.279Z,7.80
2023-01-06T23:40:15.054Z,7.90
2023-01-06T23:42:48.478Z,7.00
2023-01-06T23:45:17.170Z,8.00
2023-01-06T23:47:45.844Z,7.50
2023-01-06T23:50:16.060Z,7.90
2023-01-06T23:52:46.367Z,9.60
2023-01-06T23:55:14.817Z,7.80
2023-01-06T23:57:42.993Z,8.00
